sensor_id;sensor_type;location;lat;lon;timestamp;pressure;altitude;pressure_sealevel;temperature
7389;BMP180;3735;50.136;11.062;2023-07-31T00:02:14;98024.00;;;16.20
7389;BMP180;3735;50.136;11.062;2023-07-31T00:04:40;98018.00;;;16.10
7389;BMP180;3735;50.136;11.062;2023-07-31T00:07:06;98030.00;;;16.00
7389;BMP180;3735;50.136;11.062;2023-07-31T00:09:33;98028.00;;;15.80
7389;BMP180;3735;50.136;11.062;2023-07-31T00:11:59;98032.00;;;15.70
7389;BMP180;3735;50.136;11.062;2023-07-31T00:14:25;98031.00;;;15.60
7389;BMP180;3735;50.136;11.062;2023-07-31T00:16:51;98040.00;;;15.50
7389;BMP180;3735;50.136;11.062;2023-07-31T00:19:17;98026.00;;;15.40
7389;BMP180;3735;50.136;11.062;2023-07-31T00:21:44;98028.00;;;15.30
7389;BMP180;3735;50.136;11.062;2023-07-31T00:24:10;98034.00;;;15.20
7389;BMP180;3735;50.136;11.062;2023-07-31T00:26:35;98045.00;;;15.10
7389;BMP180;3735;50.136;11.062;2023-07-31T00:29:01;98037.00;;;15.10
7389;BMP180;3735;50.136;11.062;2023-07-31T00:31:27;98036.00;;;15.00
7389;BMP180;3735;50.136;11.062;2023-07-31T00:33:53;98035.00;;;15.00
7389;BMP180;3735;50.136;11.062;2023-07-31T00:36:18;98036.00;;;14.90
7389;BMP180;3735;50.136;11.062;2023-07-31T00:38:44;98029.00;;;14.90
7389;BMP180;3735;50.136;11.062;2023-07-31T00:41:10;98024.00;;;14.80
7389;BMP180;3735;50.136;11.062;2023-07-31T00:43:36;98028.00;;;14.80
7389;BMP180;3735;50.136;11.062;2023-07-31T00:46:01;98028.00;;;14.80
7389;BMP180;3735;50.136;11.062;2023-07-31T00:48:28;98029.00;;;14.80
7389;BMP180;3735;50.136;11.062;2023-07-31T00:50:53;98028.00;;;14.80
7389;BMP180;3735;50.136;11.062;2023-07-31T00:53:20;98010.00;;;14.70
7389;BMP180;3735;50.136;11.062;2023-07-31T00:55:46;98013.00;;;14.70
7389;BMP180;3735;50.136;11.062;2023-07-31T00:58:12;98013.00;;;14.70
7389;BMP180;3735;50.136;11.062;2023-07-31T01:00:37;98006.00;;;14.70
7389;BMP180;3735;50.136;11.062;2023-07-31T01:03:03;98017.00;;;14.70
7389;BMP180;3735;50.136;11.062;2023-07-31T01:11:36;97999.00;;;14.70
7389;BMP180;3735;50.136;11.062;2023-07-31T01:14:03;98008.00;;;14.70
7389;BMP180;3735;50.136;11.062;2023-07-31T01:16:29;97998.00;;;14.70
7389;BMP180;3735;50.136;11.062;2023-07-31T01:18:55;97991.00;;;14.70
7389;BMP180;3735;50.136;11.062;2023-07-31T01:27:41;97991.00;;;15.10
7389;BMP180;3735;50.136;11.062;2023-07-31T01:30:16;97978.00;;;15.20
7389;BMP180;3735;50.136;11.062;2023-07-31T01:32:43;97976.00;;;15.30
7389;BMP180;3735;50.136;11.062;2023-07-31T01:35:11;97975.00;;;15.20
7389;BMP180;3735;50.136;11.062;2023-07-31T01:37:37;97970.00;;;15.30
7389;BMP180;3735;50.136;11.062;2023-07-31T01:40:04;97967.00;;;15.20
7389;BMP180;3735;50.136;11.062;2023-07-31T01:42:30;97964.00;;;15.30
7389;BMP180;3735;50.136;11.062;2023-07-31T01:44:56;97962.00;;;15.30
7389;BMP180;3735;50.136;11.062;2023-07-31T01:47:22;97963.00;;;15.20
7389;BMP180;3735;50.136;11.062;2023-07-31T01:49:49;97960.00;;;15.30
7389;BMP180;3735;50.136;11.062;2023-07-31T01:52:14;97960.00;;;15.40
7389;BMP180;3735;50.136;11.062;2023-07-31T01:54:40;97959.00;;;15.40
7389;BMP180;3735;50.136;11.062;2023-07-31T01:57:06;97955.00;;;15.30
7389;BMP180;3735;50.136;11.062;2023-07-31T01:59:32;97940.00;;;15.30
7389;BMP180;3735;50.136;11.062;2023-07-31T02:01:58;97953.00;;;15.40
7389;BMP180;3735;50.136;11.062;2023-07-31T02:04:23;97949.00;;;15.60
7389;BMP180;3735;50.136;11.062;2023-07-31T02:06:49;97937.00;;;15.60
7389;BMP180;3735;50.136;11.062;2023-07-31T02:09:15;97935.00;;;15.60
7389;BMP180;3735;50.136;11.062;2023-07-31T02:11:40;97929.00;;;15.70
7389;BMP180;3735;50.136;11.062;2023-07-31T02:14:06;97931.00;;;15.70
7389;BMP180;3735;50.136;11.062;2023-07-31T02:16:32;97932.00;;;15.80
7389;BMP180;3735;50.136;11.062;2023-07-31T02:18:58;97920.00;;;16.00
7389;BMP180;3735;50.136;11.062;2023-07-31T02:21:23;97920.00;;;16.10
7389;BMP180;3735;50.136;11.062;2023-07-31T02:23:49;97920.00;;;16.30
7389;BMP180;3735;50.136;11.062;2023-07-31T02:26:15;97911.00;;;16.40
7389;BMP180;3735;50.136;11.062;2023-07-31T02:28:40;97912.00;;;16.40
7389;BMP180;3735;50.136;11.062;2023-07-31T02:31:08;97909.00;;;16.40
7389;BMP180;3735;50.136;11.062;2023-07-31T02:33:34;97901.00;;;16.60
7389;BMP180;3735;50.136;11.062;2023-07-31T02:36:00;97910.00;;;16.60
7389;BMP180;3735;50.136;11.062;2023-07-31T02:38:25;97899.00;;;16.60
7389;BMP180;3735;50.136;11.062;2023-07-31T02:40:52;97893.00;;;16.70
7389;BMP180;3735;50.136;11.062;2023-07-31T02:43:17;97901.00;;;16.70
7389;BMP180;3735;50.136;11.062;2023-07-31T02:45:43;97900.00;;;16.70
7389;BMP180;3735;50.136;11.062;2023-07-31T02:48:09;97901.00;;;16.70
7389;BMP180;3735;50.136;11.062;2023-07-31T02:50:35;97908.00;;;16.70
7389;BMP180;3735;50.136;11.062;2023-07-31T02:53:00;97897.00;;;16.80
7389;BMP180;3735;50.136;11.062;2023-07-31T02:55:26;97911.00;;;16.70
7389;BMP180;3735;50.136;11.062;2023-07-31T02:57:52;97903.00;;;16.70
7389;BMP180;3735;50.136;11.062;2023-07-31T03:00:18;97904.00;;;16.70
7389;BMP180;3735;50.136;11.062;2023-07-31T03:02:44;97909.00;;;16.60
7389;BMP180;3735;50.136;11.062;2023-07-31T03:05:10;97915.00;;;16.60
7389;BMP180;3735;50.136;11.062;2023-07-31T03:07:35;97900.00;;;16.40
7389;BMP180;3735;50.136;11.062;2023-07-31T03:10:01;97909.00;;;16.40
7389;BMP180;3735;50.136;11.062;2023-07-31T03:12:27;97909.00;;;16.30
7389;BMP180;3735;50.136;11.062;2023-07-31T03:14:53;97916.00;;;16.30
7389;BMP180;3735;50.136;11.062;2023-07-31T03:17:19;97910.00;;;16.20
7389;BMP180;3735;50.136;11.062;2023-07-31T03:19:44;97910.00;;;16.20
7389;BMP180;3735;50.136;11.062;2023-07-31T03:22:10;97904.00;;;16.20
7389;BMP180;3735;50.136;11.062;2023-07-31T03:24:36;97902.00;;;16.20
7389;BMP180;3735;50.136;11.062;2023-07-31T03:27:02;97907.00;;;16.20
7389;BMP180;3735;50.136;11.062;2023-07-31T03:29:27;97905.00;;;16.20
7389;BMP180;3735;50.136;11.062;2023-07-31T03:31:53;97898.00;;;16.30
7389;BMP180;3735;50.136;11.062;2023-07-31T03:34:19;97898.00;;;16.40
7389;BMP180;3735;50.136;11.062;2023-07-31T03:36:44;97900.00;;;16.50
7389;BMP180;3735;50.136;11.062;2023-07-31T03:39:10;97899.00;;;16.50
7389;BMP180;3735;50.136;11.062;2023-07-31T03:41:36;97893.00;;;16.60
7389;BMP180;3735;50.136;11.062;2023-07-31T03:44:02;97889.00;;;16.60
7389;BMP180;3735;50.136;11.062;2023-07-31T03:46:27;97893.00;;;16.60
7389;BMP180;3735;50.136;11.062;2023-07-31T03:48:53;97896.00;;;16.60
7389;BMP180;3735;50.136;11.062;2023-07-31T03:51:19;97888.00;;;16.60
7389;BMP180;3735;50.136;11.062;2023-07-31T03:53:45;97887.00;;;16.70
7389;BMP180;3735;50.136;11.062;2023-07-31T03:56:11;97897.00;;;16.80
7389;BMP180;3735;50.136;11.062;2023-07-31T03:58:37;97893.00;;;16.80
7389;BMP180;3735;50.136;11.062;2023-07-31T04:01:03;97882.00;;;16.80
7389;BMP180;3735;50.136;11.062;2023-07-31T04:03:29;97889.00;;;16.90
7389;BMP180;3735;50.136;11.062;2023-07-31T04:05:55;97887.00;;;16.90
7389;BMP180;3735;50.136;11.062;2023-07-31T04:08:22;97890.00;;;16.90
7389;BMP180;3735;50.136;11.062;2023-07-31T04:10:48;97881.00;;;16.90
7389;BMP180;3735;50.136;11.062;2023-07-31T04:13:14;97882.00;;;16.90
7389;BMP180;3735;50.136;11.062;2023-07-31T04:15:40;97884.00;;;16.90
7389;BMP180;3735;50.136;11.062;2023-07-31T04:18:06;97884.00;;;16.90
7389;BMP180;3735;50.136;11.062;2023-07-31T04:20:32;97882.00;;;16.90
7389;BMP180;3735;50.136;11.062;2023-07-31T04:22:58;97885.00;;;16.90
7389;BMP180;3735;50.136;11.062;2023-07-31T04:25:24;97881.00;;;16.90
7389;BMP180;3735;50.136;11.062;2023-07-31T04:27:50;97879.00;;;16.90
7389;BMP180;3735;50.136;11.062;2023-07-31T04:30:15;97884.00;;;16.90
7389;BMP180;3735;50.136;11.062;2023-07-31T04:32:41;97880.00;;;16.80
7389;BMP180;3735;50.136;11.062;2023-07-31T04:35:07;97879.00;;;16.80
7389;BMP180;3735;50.136;11.062;2023-07-31T04:37:33;97887.00;;;16.80
7389;BMP180;3735;50.136;11.062;2023-07-31T04:39:58;97885.00;;;16.90
7389;BMP180;3735;50.136;11.062;2023-07-31T04:42:24;97895.00;;;16.80
7389;BMP180;3735;50.136;11.062;2023-07-31T04:44:50;97902.00;;;16.80
7389;BMP180;3735;50.136;11.062;2023-07-31T04:47:18;97894.00;;;16.80
7389;BMP180;3735;50.136;11.062;2023-07-31T04:49:44;97892.00;;;16.80
7389;BMP180;3735;50.136;11.062;2023-07-31T04:52:10;97876.00;;;16.80
7389;BMP180;3735;50.136;11.062;2023-07-31T04:54:36;97888.00;;;16.80
7389;BMP180;3735;50.136;11.062;2023-07-31T04:57:01;97883.00;;;16.80
7389;BMP180;3735;50.136;11.062;2023-07-31T04:59:27;97891.00;;;16.80
7389;BMP180;3735;50.136;11.062;2023-07-31T05:01:53;97892.00;;;16.80
7389;BMP180;3735;50.136;11.062;2023-07-31T05:04:19;97887.00;;;16.90
7389;BMP180;3735;50.136;11.062;2023-07-31T05:06:44;97880.00;;;16.80
7389;BMP180;3735;50.136;11.062;2023-07-31T05:09:10;97874.00;;;16.80
7389;BMP180;3735;50.136;11.062;2023-07-31T05:11:36;97881.00;;;16.90
7389;BMP180;3735;50.136;11.062;2023-07-31T05:14:01;97883.00;;;16.80
7389;BMP180;3735;50.136;11.062;2023-07-31T05:16:27;97887.00;;;16.90
7389;BMP180;3735;50.136;11.062;2023-07-31T05:18:53;97883.00;;;16.90
7389;BMP180;3735;50.136;11.062;2023-07-31T05:21:19;97888.00;;;16.90
7389;BMP180;3735;50.136;11.062;2023-07-31T05:23:44;97889.00;;;16.90
7389;BMP180;3735;50.136;11.062;2023-07-31T05:26:10;97874.00;;;16.90
7389;BMP180;3735;50.136;11.062;2023-07-31T05:28:36;97878.00;;;16.90
7389;BMP180;3735;50.136;11.062;2023-07-31T05:31:05;97867.00;;;16.90
7389;BMP180;3735;50.136;11.062;2023-07-31T05:33:31;97873.00;;;17.00
7389;BMP180;3735;50.136;11.062;2023-07-31T05:35:57;97873.00;;;17.00
7389;BMP180;3735;50.136;11.062;2023-07-31T05:38:23;97876.00;;;17.10
7389;BMP180;3735;50.136;11.062;2023-07-31T05:40:49;97867.00;;;17.10
7389;BMP180;3735;50.136;11.062;2023-07-31T05:43:14;97866.00;;;17.10
7389;BMP180;3735;50.136;11.062;2023-07-31T05:45:42;97883.00;;;17.20
7389;BMP180;3735;50.136;11.062;2023-07-31T05:48:08;97881.00;;;17.10
7389;BMP180;3735;50.136;11.062;2023-07-31T05:50:33;97888.00;;;17.10
7389;BMP180;3735;50.136;11.062;2023-07-31T05:52:59;97890.00;;;17.10
7389;BMP180;3735;50.136;11.062;2023-07-31T05:55:25;97888.00;;;17.00
7389;BMP180;3735;50.136;11.062;2023-07-31T05:57:54;97883.00;;;17.10
7389;BMP180;3735;50.136;11.062;2023-07-31T06:00:20;97888.00;;;17.10
7389;BMP180;3735;50.136;11.062;2023-07-31T06:02:48;97881.00;;;17.10
7389;BMP180;3735;50.136;11.062;2023-07-31T06:05:14;97884.00;;;17.10
7389;BMP180;3735;50.136;11.062;2023-07-31T06:07:40;97873.00;;;17.20
7389;BMP180;3735;50.136;11.062;2023-07-31T06:10:06;97874.00;;;17.30
7389;BMP180;3735;50.136;11.062;2023-07-31T06:12:33;97883.00;;;17.40
7389;BMP180;3735;50.136;11.062;2023-07-31T06:14:59;97879.00;;;17.40
7389;BMP180;3735;50.136;11.062;2023-07-31T06:17:25;97871.00;;;17.40
7389;BMP180;3735;50.136;11.062;2023-07-31T06:19:51;97879.00;;;17.40
7389;BMP180;3735;50.136;11.062;2023-07-31T06:22:18;97871.00;;;17.30
7389;BMP180;3735;50.136;11.062;2023-07-31T06:24:44;97874.00;;;17.30
7389;BMP180;3735;50.136;11.062;2023-07-31T06:27:10;97868.00;;;17.40
7389;BMP180;3735;50.136;11.062;2023-07-31T06:29:37;97871.00;;;17.30
7389;BMP180;3735;50.136;11.062;2023-07-31T06:32:03;97877.00;;;17.50
7389;BMP180;3735;50.136;11.062;2023-07-31T06:34:29;97886.00;;;17.40
7389;BMP180;3735;50.136;11.062;2023-07-31T06:36:56;97881.00;;;17.40
7389;BMP180;3735;50.136;11.062;2023-07-31T06:39:22;97881.00;;;17.40
7389;BMP180;3735;50.136;11.062;2023-07-31T06:41:48;97872.00;;;17.50
7389;BMP180;3735;50.136;11.062;2023-07-31T06:44:14;97879.00;;;17.30
7389;BMP180;3735;50.136;11.062;2023-07-31T06:46:39;97891.00;;;17.30
7389;BMP180;3735;50.136;11.062;2023-07-31T06:49:05;97895.00;;;17.30
7389;BMP180;3735;50.136;11.062;2023-07-31T06:51:31;97888.00;;;17.30
7389;BMP180;3735;50.136;11.062;2023-07-31T06:53:58;97899.00;;;17.40
7389;BMP180;3735;50.136;11.062;2023-07-31T06:56:24;97893.00;;;17.40
7389;BMP180;3735;50.136;11.062;2023-07-31T06:58:49;97893.00;;;17.60
7389;BMP180;3735;50.136;11.062;2023-07-31T07:01:15;97887.00;;;17.70
7389;BMP180;3735;50.136;11.062;2023-07-31T07:03:41;97885.00;;;18.00
7389;BMP180;3735;50.136;11.062;2023-07-31T07:06:07;97882.00;;;18.00
7389;BMP180;3735;50.136;11.062;2023-07-31T07:08:32;97890.00;;;18.30
7389;BMP180;3735;50.136;11.062;2023-07-31T07:10:58;97890.00;;;18.00
7389;BMP180;3735;50.136;11.062;2023-07-31T07:13:24;97879.00;;;18.10
7389;BMP180;3735;50.136;11.062;2023-07-31T07:15:51;97886.00;;;18.00
7389;BMP180;3735;50.136;11.062;2023-07-31T07:18:17;97897.00;;;18.00
7389;BMP180;3735;50.136;11.062;2023-07-31T07:20:49;97879.00;;;18.00
7389;BMP180;3735;50.136;11.062;2023-07-31T07:23:15;97890.00;;;18.10
7389;BMP180;3735;50.136;11.062;2023-07-31T07:25:42;97883.00;;;18.20
7389;BMP180;3735;50.136;11.062;2023-07-31T07:28:09;97887.00;;;18.10
7389;BMP180;3735;50.136;11.062;2023-07-31T07:30:35;97887.00;;;18.30
7389;BMP180;3735;50.136;11.062;2023-07-31T07:33:01;97889.00;;;18.20
7389;BMP180;3735;50.136;11.062;2023-07-31T07:35:27;97885.00;;;18.30
7389;BMP180;3735;50.136;11.062;2023-07-31T07:37:53;97891.00;;;18.30
7389;BMP180;3735;50.136;11.062;2023-07-31T07:40:20;97886.00;;;18.20
7389;BMP180;3735;50.136;11.062;2023-07-31T07:42:45;97884.00;;;18.20
7389;BMP180;3735;50.136;11.062;2023-07-31T07:45:12;97884.00;;;18.10
7389;BMP180;3735;50.136;11.062;2023-07-31T07:47:40;97890.00;;;18.10
7389;BMP180;3735;50.136;11.062;2023-07-31T07:50:07;97884.00;;;18.30
7389;BMP180;3735;50.136;11.062;2023-07-31T07:52:33;97880.00;;;18.30
7389;BMP180;3735;50.136;11.062;2023-07-31T07:54:58;97877.00;;;18.60
7389;BMP180;3735;50.136;11.062;2023-07-31T07:57:26;97872.00;;;18.80
7389;BMP180;3735;50.136;11.062;2023-07-31T07:59:52;97871.00;;;19.00
7389;BMP180;3735;50.136;11.062;2023-07-31T08:02:18;97870.00;;;19.20
7389;BMP180;3735;50.136;11.062;2023-07-31T08:04:44;97867.00;;;19.30
7389;BMP180;3735;50.136;11.062;2023-07-31T08:07:13;97863.00;;;19.30
7389;BMP180;3735;50.136;11.062;2023-07-31T08:09:39;97862.00;;;19.40
7389;BMP180;3735;50.136;11.062;2023-07-31T08:12:05;97863.00;;;19.50
7389;BMP180;3735;50.136;11.062;2023-07-31T08:14:32;97850.00;;;19.50
7389;BMP180;3735;50.136;11.062;2023-07-31T08:16:58;97848.00;;;19.80
7389;BMP180;3735;50.136;11.062;2023-07-31T08:19:23;97844.00;;;19.60
7389;BMP180;3735;50.136;11.062;2023-07-31T08:21:49;97856.00;;;19.50
7389;BMP180;3735;50.136;11.062;2023-07-31T08:24:15;97850.00;;;19.70
7389;BMP180;3735;50.136;11.062;2023-07-31T08:26:41;97854.00;;;19.90
7389;BMP180;3735;50.136;11.062;2023-07-31T08:29:06;97852.00;;;20.30
7389;BMP180;3735;50.136;11.062;2023-07-31T08:31:32;97849.00;;;20.20
7389;BMP180;3735;50.136;11.062;2023-07-31T08:33:58;97844.00;;;20.40
7389;BMP180;3735;50.136;11.062;2023-07-31T08:36:24;97852.00;;;20.30
7389;BMP180;3735;50.136;11.062;2023-07-31T08:38:49;97847.00;;;20.30
7389;BMP180;3735;50.136;11.062;2023-07-31T08:41:16;97844.00;;;20.70
7389;BMP180;3735;50.136;11.062;2023-07-31T08:43:49;97832.00;;;22.40
7389;BMP180;3735;50.136;11.062;2023-07-31T08:46:16;97834.00;;;23.00
7389;BMP180;3735;50.136;11.062;2023-07-31T08:48:44;97838.00;;;22.70
7389;BMP180;3735;50.136;11.062;2023-07-31T08:51:14;97841.00;;;22.60
7389;BMP180;3735;50.136;11.062;2023-07-31T08:53:40;97833.00;;;22.70
7389;BMP180;3735;50.136;11.062;2023-07-31T08:56:07;97817.00;;;22.70
7389;BMP180;3735;50.136;11.062;2023-07-31T08:58:34;97827.00;;;24.00
7389;BMP180;3735;50.136;11.062;2023-07-31T09:01:04;97833.00;;;24.90
7389;BMP180;3735;50.136;11.062;2023-07-31T09:03:34;97833.00;;;24.30
7389;BMP180;3735;50.136;11.062;2023-07-31T09:06:02;97814.00;;;23.60
7389;BMP180;3735;50.136;11.062;2023-07-31T09:08:31;97821.00;;;24.00
7389;BMP180;3735;50.136;11.062;2023-07-31T09:11:01;97823.00;;;24.00
7389;BMP180;3735;50.136;11.062;2023-07-31T09:13:30;97816.00;;;24.50
7389;BMP180;3735;50.136;11.062;2023-07-31T09:15:56;97812.00;;;24.10
7389;BMP180;3735;50.136;11.062;2023-07-31T09:18:22;97817.00;;;24.40
7389;BMP180;3735;50.136;11.062;2023-07-31T09:21:05;97813.00;;;24.20
7389;BMP180;3735;50.136;11.062;2023-07-31T09:23:46;97816.00;;;24.30
7389;BMP180;3735;50.136;11.062;2023-07-31T09:26:36;97827.00;;;24.30
7389;BMP180;3735;50.136;11.062;2023-07-31T09:29:07;97820.00;;;23.90
7389;BMP180;3735;50.136;11.062;2023-07-31T09:31:44;97819.00;;;24.20
7389;BMP180;3735;50.136;11.062;2023-07-31T09:34:11;97828.00;;;23.30
7389;BMP180;3735;50.136;11.062;2023-07-31T09:36:50;97837.00;;;22.80
7389;BMP180;3735;50.136;11.062;2023-07-31T09:39:17;97828.00;;;22.50
7389;BMP180;3735;50.136;11.062;2023-07-31T09:41:54;97829.00;;;21.90
7389;BMP180;3735;50.136;11.062;2023-07-31T09:44:20;97821.00;;;21.50
7389;BMP180;3735;50.136;11.062;2023-07-31T09:46:46;97823.00;;;21.60
7389;BMP180;3735;50.136;11.062;2023-07-31T09:49:14;97824.00;;;22.00
7389;BMP180;3735;50.136;11.062;2023-07-31T09:51:42;97817.00;;;22.50
7389;BMP180;3735;50.136;11.062;2023-07-31T09:54:16;97816.00;;;22.50
7389;BMP180;3735;50.136;11.062;2023-07-31T09:56:45;97803.00;;;23.50
7389;BMP180;3735;50.136;11.062;2023-07-31T09:59:14;97789.00;;;24.30
7389;BMP180;3735;50.136;11.062;2023-07-31T10:01:41;97782.00;;;24.40
7389;BMP180;3735;50.136;11.062;2023-07-31T10:04:09;97776.00;;;24.60
7389;BMP180;3735;50.136;11.062;2023-07-31T10:06:37;97771.00;;;25.20
7389;BMP180;3735;50.136;11.062;2023-07-31T10:09:11;97767.00;;;25.90
7389;BMP180;3735;50.136;11.062;2023-07-31T10:11:53;97767.00;;;26.30
7389;BMP180;3735;50.136;11.062;2023-07-31T10:14:23;97768.00;;;26.40
7389;BMP180;3735;50.136;11.062;2023-07-31T10:16:50;97769.00;;;26.00
7389;BMP180;3735;50.136;11.062;2023-07-31T10:19:18;97760.00;;;25.80
7389;BMP180;3735;50.136;11.062;2023-07-31T10:21:45;97762.00;;;26.30
7389;BMP180;3735;50.136;11.062;2023-07-31T10:24:15;97768.00;;;25.60
7389;BMP180;3735;50.136;11.062;2023-07-31T10:26:47;97766.00;;;24.90
7389;BMP180;3735;50.136;11.062;2023-07-31T10:29:15;97757.00;;;24.60
7389;BMP180;3735;50.136;11.062;2023-07-31T10:31:42;97775.00;;;24.20
7389;BMP180;3735;50.136;11.062;2023-07-31T10:34:09;97770.00;;;24.00
7389;BMP180;3735;50.136;11.062;2023-07-31T10:36:34;97765.00;;;24.20
7389;BMP180;3735;50.136;11.062;2023-07-31T10:39:04;97768.00;;;24.20
7389;BMP180;3735;50.136;11.062;2023-07-31T10:41:30;97753.00;;;24.90
7389;BMP180;3735;50.136;11.062;2023-07-31T10:44:03;97751.00;;;25.30
7389;BMP180;3735;50.136;11.062;2023-07-31T10:46:29;97755.00;;;25.40
7389;BMP180;3735;50.136;11.062;2023-07-31T10:49:02;97746.00;;;25.90
7389;BMP180;3735;50.136;11.062;2023-07-31T10:51:35;97747.00;;;26.30
7389;BMP180;3735;50.136;11.062;2023-07-31T10:54:16;97752.00;;;25.80
7389;BMP180;3735;50.136;11.062;2023-07-31T10:56:50;97759.00;;;24.70
7389;BMP180;3735;50.136;11.062;2023-07-31T10:59:16;97767.00;;;24.40
7389;BMP180;3735;50.136;11.062;2023-07-31T11:01:54;97768.00;;;23.50
7389;BMP180;3735;50.136;11.062;2023-07-31T11:04:27;97756.00;;;23.20
7389;BMP180;3735;50.136;11.062;2023-07-31T11:07:01;97749.00;;;23.00
7389;BMP180;3735;50.136;11.062;2023-07-31T11:09:30;97751.00;;;23.10
7389;BMP180;3735;50.136;11.062;2023-07-31T11:11:58;97758.00;;;23.20
7389;BMP180;3735;50.136;11.062;2023-07-31T11:14:24;97753.00;;;23.00
7389;BMP180;3735;50.136;11.062;2023-07-31T11:16:50;97748.00;;;22.80
7389;BMP180;3735;50.136;11.062;2023-07-31T11:19:24;97742.00;;;22.50
7389;BMP180;3735;50.136;11.062;2023-07-31T11:21:52;97742.00;;;22.40
7389;BMP180;3735;50.136;11.062;2023-07-31T11:24:21;97746.00;;;22.20
7389;BMP180;3735;50.136;11.062;2023-07-31T11:26:54;97744.00;;;21.70
7389;BMP180;3735;50.136;11.062;2023-07-31T11:29:20;97751.00;;;21.30
7389;BMP180;3735;50.136;11.062;2023-07-31T11:31:47;97755.00;;;21.30
7389;BMP180;3735;50.136;11.062;2023-07-31T11:34:14;97750.00;;;21.20
7389;BMP180;3735;50.136;11.062;2023-07-31T11:36:40;97757.00;;;21.10
7389;BMP180;3735;50.136;11.062;2023-07-31T11:39:10;97749.00;;;21.00
7389;BMP180;3735;50.136;11.062;2023-07-31T11:41:40;97767.00;;;20.70
7389;BMP180;3735;50.136;11.062;2023-07-31T11:44:06;97767.00;;;20.50
7389;BMP180;3735;50.136;11.062;2023-07-31T11:46:32;97767.00;;;20.20
7389;BMP180;3735;50.136;11.062;2023-07-31T11:49:01;97754.00;;;20.10
7389;BMP180;3735;50.136;11.062;2023-07-31T11:51:29;97768.00;;;20.20
7389;BMP180;3735;50.136;11.062;2023-07-31T11:54:00;97766.00;;;20.20
7389;BMP180;3735;50.136;11.062;2023-07-31T11:56:27;97765.00;;;20.20
7389;BMP180;3735;50.136;11.062;2023-07-31T11:58:58;97768.00;;;20.00
7389;BMP180;3735;50.136;11.062;2023-07-31T12:01:26;97771.00;;;19.90
7389;BMP180;3735;50.136;11.062;2023-07-31T12:03:53;97771.00;;;19.70
7389;BMP180;3735;50.136;11.062;2023-07-31T12:06:19;97768.00;;;19.50
7389;BMP180;3735;50.136;11.062;2023-07-31T12:08:48;97774.00;;;19.20
7389;BMP180;3735;50.136;11.062;2023-07-31T12:11:14;97766.00;;;19.00
7389;BMP180;3735;50.136;11.062;2023-07-31T12:13:41;97781.00;;;19.00
7389;BMP180;3735;50.136;11.062;2023-07-31T12:16:07;97770.00;;;19.10
7389;BMP180;3735;50.136;11.062;2023-07-31T12:18:37;97768.00;;;19.20
7389;BMP180;3735;50.136;11.062;2023-07-31T12:21:08;97769.00;;;19.30
7389;BMP180;3735;50.136;11.062;2023-07-31T12:23:37;97750.00;;;19.40
7389;BMP180;3735;50.136;11.062;2023-07-31T12:28:50;97756.00;;;19.20
7389;BMP180;3735;50.136;11.062;2023-07-31T12:31:17;97768.00;;;19.30
7389;BMP180;3735;50.136;11.062;2023-07-31T12:33:44;97761.00;;;19.00
7389;BMP180;3735;50.136;11.062;2023-07-31T12:36:14;97767.00;;;18.60
7389;BMP180;3735;50.136;11.062;2023-07-31T12:38:42;97757.00;;;18.30
7389;BMP180;3735;50.136;11.062;2023-07-31T12:41:08;97757.00;;;18.30
7389;BMP180;3735;50.136;11.062;2023-07-31T12:43:39;97750.00;;;18.40
7389;BMP180;3735;50.136;11.062;2023-07-31T12:46:06;97744.00;;;18.40
7389;BMP180;3735;50.136;11.062;2023-07-31T12:48:37;97737.00;;;18.50
7389;BMP180;3735;50.136;11.062;2023-07-31T12:51:03;97736.00;;;18.60
7389;BMP180;3735;50.136;11.062;2023-07-31T12:53:29;97734.00;;;18.70
7389;BMP180;3735;50.136;11.062;2023-07-31T12:55:56;97717.00;;;18.80
7389;BMP180;3735;50.136;11.062;2023-07-31T12:58:22;97721.00;;;18.90
7389;BMP180;3735;50.136;11.062;2023-07-31T13:00:48;97711.00;;;19.10
7389;BMP180;3735;50.136;11.062;2023-07-31T13:03:14;97698.00;;;19.50
7389;BMP180;3735;50.136;11.062;2023-07-31T13:05:40;97701.00;;;19.70
7389;BMP180;3735;50.136;11.062;2023-07-31T13:08:06;97691.00;;;19.80
7389;BMP180;3735;50.136;11.062;2023-07-31T13:10:31;97689.00;;;20.00
7389;BMP180;3735;50.136;11.062;2023-07-31T13:12:57;97682.00;;;20.20
7389;BMP180;3735;50.136;11.062;2023-07-31T13:15:23;97672.00;;;20.60
7389;BMP180;3735;50.136;11.062;2023-07-31T13:17:49;97662.00;;;20.90
7389;BMP180;3735;50.136;11.062;2023-07-31T13:20:15;97659.00;;;21.10
7389;BMP180;3735;50.136;11.062;2023-07-31T13:22:40;97647.00;;;20.90
7389;BMP180;3735;50.136;11.062;2023-07-31T13:25:07;97640.00;;;21.40
7389;BMP180;3735;50.136;11.062;2023-07-31T13:27:33;97637.00;;;22.20
7389;BMP180;3735;50.136;11.062;2023-07-31T13:29:59;97633.00;;;23.20
7389;BMP180;3735;50.136;11.062;2023-07-31T13:32:24;97625.00;;;24.40
7389;BMP180;3735;50.136;11.062;2023-07-31T13:34:51;97608.00;;;25.20
7389;BMP180;3735;50.136;11.062;2023-07-31T13:37:17;97600.00;;;26.60
7389;BMP180;3735;50.136;11.062;2023-07-31T13:39:44;97598.00;;;27.30
7389;BMP180;3735;50.136;11.062;2023-07-31T13:42:10;97591.00;;;27.30
7389;BMP180;3735;50.136;11.062;2023-07-31T13:44:41;97585.00;;;26.30
7389;BMP180;3735;50.136;11.062;2023-07-31T13:47:09;97577.00;;;26.60
7389;BMP180;3735;50.136;11.062;2023-07-31T13:49:35;97585.00;;;26.00
7389;BMP180;3735;50.136;11.062;2023-07-31T13:52:02;97586.00;;;25.00
7389;BMP180;3735;50.136;11.062;2023-07-31T13:54:27;97584.00;;;24.40
7389;BMP180;3735;50.136;11.062;2023-07-31T13:56:53;97584.00;;;24.30
7389;BMP180;3735;50.136;11.062;2023-07-31T13:59:20;97576.00;;;23.80
7389;BMP180;3735;50.136;11.062;2023-07-31T14:01:46;97582.00;;;23.70
7389;BMP180;3735;50.136;11.062;2023-07-31T14:04:12;97579.00;;;23.50
7389;BMP180;3735;50.136;11.062;2023-07-31T14:06:38;97564.00;;;23.30
7389;BMP180;3735;50.136;11.062;2023-07-31T14:09:04;97571.00;;;22.70
7389;BMP180;3735;50.136;11.062;2023-07-31T14:11:33;97573.00;;;22.30
7389;BMP180;3735;50.136;11.062;2023-07-31T14:13:59;97563.00;;;22.30
7389;BMP180;3735;50.136;11.062;2023-07-31T14:16:27;97579.00;;;22.20
7389;BMP180;3735;50.136;11.062;2023-07-31T14:18:53;97586.00;;;22.60
7389;BMP180;3735;50.136;11.062;2023-07-31T14:21:20;97571.00;;;22.60
7389;BMP180;3735;50.136;11.062;2023-07-31T14:23:46;97573.00;;;22.70
7389;BMP180;3735;50.136;11.062;2023-07-31T14:26:11;97580.00;;;22.60
7389;BMP180;3735;50.136;11.062;2023-07-31T14:28:38;97567.00;;;22.50
7389;BMP180;3735;50.136;11.062;2023-07-31T14:31:04;97583.00;;;22.30
7389;BMP180;3735;50.136;11.062;2023-07-31T14:33:29;97586.00;;;22.30
7389;BMP180;3735;50.136;11.062;2023-07-31T14:35:55;97585.00;;;22.20